Time;durP1;ratioP1;P1;durP2;ratioP2;P2;SDS_P1;SDS_P2;PMS_P1;PMS_P2;Temp;Humidity;BMP_temperature;BMP_pressure;BME280_temperature;BME280_humidity;BME280_pressure;Samples;Min_cycle;Max_cycle;Signal;HPM_P1;HPM_P2
2022/01/14 00:01:46;;;;;;;;;86.25;62.25;;;;;5.30;69.16;103527.91;5039482;28;45260;-75
2022/01/14 00:04:12;;;;;;;;;92.00;66.75;;;;;5.29;69.14;103524.41;5020019;28;45483;-75
2022/01/14 00:06:37;;;;;;;;;86.00;61.50;;;;;5.28;68.88;103519.97;5037783;28;45210;-77
2022/01/14 00:09:08;;;;;;;;;79.25;60.00;;;;;5.15;68.94;103505.00;5040770;28;45435;-77
2022/01/14 00:11:43;;;;;;;;;85.00;60.25;;;;;5.26;69.41;103526.78;5058702;28;45307;-77
2022/01/14 00:14:58;;;;;;;;;80.25;59.75;;;;;5.25;69.30;103518.00;5038584;28;46300;-76
2022/01/14 00:16:54;;;;;;;;;82.00;59.25;;;;;5.24;69.44;103510.03;5023709;28;45146;-77
2022/01/14 00:19:20;;;;;;;;;84.00;61.25;;;;;5.20;69.20;103506.25;5038055;28;54841;-77
2022/01/14 00:21:46;;;;;;;;;78.75;57.00;;;;;5.22;69.37;103515.16;5016598;28;45420;-76
2022/01/14 00:32:15;;;;;;;;;75.00;58.00;;;;;5.23;69.49;103514.38;5054231;28;45297;-76
2022/01/14 00:34:40;;;;;;;;;73.75;56.50;;;;;5.23;69.20;103522.22;5037069;28;45373;-78
2022/01/14 00:37:06;;;;;;;;;81.50;58.00;;;;;5.22;69.23;103512.56;5038620;28;61389;-77
2022/01/14 00:39:32;;;;;;;;;78.25;57.50;;;;;5.21;69.36;103510.69;5057775;28;51656;-75
2022/01/14 00:41:57;;;;;;;;;73.50;58.00;;;;;5.20;69.01;103508.88;5039781;28;45534;-76
2022/01/14 00:44:22;;;;;;;;;79.25;55.25;;;;;5.18;69.25;103504.34;5040183;28;46018;-76
2022/01/14 00:46:48;;;;;;;;;68.50;52.00;;;;;5.12;69.09;103490.78;5021708;28;58702;-76
2022/01/14 00:49:14;;;;;;;;;77.25;54.00;;;;;5.14;69.27;103495.31;5038104;28;45343;-76
2022/01/14 00:51:40;;;;;;;;;75.25;53.75;;;;;5.13;69.06;103490.91;5040020;28;45454;-78
2022/01/14 00:54:06;;;;;;;;;75.50;55.75;;;;;5.12;69.53;103502.16;5052697;28;46335;-76
2022/01/14 00:56:44;;;;;;;;;73.50;54.00;;;;;5.11;69.17;103502.94;5036158;28;45284;-75
2022/01/14 00:59:14;;;;;;;;;68.50;52.75;;;;;5.11;69.21;103505.56;5037863;28;45194;-75
2022/01/14 01:02:01;;;;;;;;;71.75;56.50;;;;;5.09;69.42;103499.31;5038190;28;45529;-76
2022/01/14 01:04:34;;;;;;;;;70.00;49.25;;;;;5.06;69.59;103499.09;5057335;28;45707;-74
2022/01/14 01:07:01;;;;;;;;;71.75;54.00;;;;;5.10;69.51;103498.50;5057487;28;45392;-78
2022/01/14 01:09:26;;;;;;;;;72.25;54.50;;;;;5.07;69.26;103492.16;5057750;28;45477;-74
2022/01/14 01:12:05;;;;;;;;;76.75;55.50;;;;;5.11;69.48;103496.78;5039963;28;45424;-76
2022/01/14 01:14:39;;;;;;;;;77.50;54.75;;;;;5.10;69.09;103495.88;5055881;28;47418;-78
2022/01/14 01:17:05;;;;;;;;;65.75;50.00;;;;;5.13;69.55;103501.38;5057423;28;45424;-75
2022/01/14 01:19:30;;;;;;;;;74.25;54.50;;;;;5.14;69.45;103497.94;5047141;28;45123;-78
2022/01/14 01:21:56;;;;;;;;;69.75;54.00;;;;;5.10;69.29;103477.56;5052115;28;56381;-76
2022/01/14 01:24:22;;;;;;;;;76.50;54.50;;;;;5.15;69.46;103488.38;5056901;28;58703;-77
2022/01/14 01:26:49;;;;;;;;;74.50;53.75;;;;;5.14;69.55;103492.72;5057265;28;45261;-75
2022/01/14 01:29:33;;;;;;;;;73.25;54.25;;;;;5.13;69.46;103489.97;5029882;28;45338;-78
2022/01/14 01:31:58;;;;;;;;;74.25;51.50;;;;;5.12;69.36;103489.06;5042190;28;45704;-76
2022/01/14 01:34:24;;;;;;;;;67.50;51.00;;;;;5.12;69.39;103483.84;5039118;28;46493;-77
2022/01/14 01:36:51;;;;;;;;;67.75;50.00;;;;;5.08;69.36;103481.78;5039205;28;45265;-76
2022/01/14 01:39:19;;;;;;;;;65.25;49.25;;;;;5.08;69.07;103481.78;5039580;28;45320;-75
2022/01/14 01:41:49;;;;;;;;;69.75;50.25;;;;;5.08;68.89;103483.47;5057202;28;45566;-76
2022/01/14 01:44:15;;;;;;;;;69.00;52.50;;;;;5.07;69.01;103489.53;5039764;28;46232;-75
2022/01/14 01:46:43;;;;;;;;;39.00;29.75;;;;;5.05;69.23;103504.19;5056670;28;45512;-75
2022/01/14 01:49:09;;;;;;;;;77.00;54.75;;;;;5.03;68.84;103498.84;5039495;28;45487;-76
2022/01/14 01:51:34;;;;;;;;;72.00;51.50;;;;;5.02;68.98;103496.13;5021536;28;45167;-76
2022/01/14 01:54:00;;;;;;;;;66.00;44.75;;;;;4.99;68.76;103492.44;5036604;28;46542;-76
2022/01/14 01:56:25;;;;;;;;;73.75;53.50;;;;;4.97;69.00;103487.91;5036745;28;45344;-76
2022/01/14 01:58:51;;;;;;;;;58.75;47.25;;;;;4.97;69.08;103495.75;5037205;28;45224;-76
2022/01/14 02:01:17;;;;;;;;;64.25;52.75;;;;;4.95;68.78;103485.19;5051560;28;54416;-79
2022/01/14 02:03:42;;;;;;;;;70.00;51.00;;;;;4.93;69.07;103483.22;5027044;28;45620;-75
2022/01/14 02:06:07;;;;;;;;;67.00;48.25;;;;;4.92;69.07;103477.06;5035566;28;60437;-74
2022/01/14 02:08:33;;;;;;;;;64.50;48.50;;;;;4.87;69.00;103472.28;5038493;28;46345;-76
2022/01/14 02:10:59;;;;;;;;;68.25;51.50;;;;;4.91;68.92;103479.59;5036968;28;45241;-75
2022/01/14 02:13:25;;;;;;;;;74.50;55.50;;;;;4.84;69.05;103462.47;5025219;28;46583;-74
2022/01/14 02:18:36;;;;;;;;;62.75;49.75;;;;;4.78;68.90;103467.25;5042106;28;45266;-77
2022/01/14 02:23:52;;;;;;;;;63.25;49.25;;;;;4.84;69.11;103472.94;5062702;28;45217;-76
2022/01/14 02:26:19;;;;;;;;;69.00;51.50;;;;;4.78;69.26;103455.88;5063049;28;45529;-78
2022/01/14 02:28:45;;;;;;;;;71.25;50.25;;;;;4.82;69.08;103466.69;5027739;28;45519;-76
2022/01/14 02:31:11;;;;;;;;;63.00;48.75;;;;;4.79;69.36;103460.31;5045479;28;45497;-76
2022/01/14 02:33:36;;;;;;;;;69.00;54.00;;;;;4.83;69.07;103465.00;5062882;28;46147;-76
2022/01/14 02:36:04;;;;;;;;;67.50;51.00;;;;;4.79;69.14;103453.34;5062987;28;45977;-77
2022/01/14 02:38:29;;;;;;;;;77.75;54.00;;;;;4.80;69.22;103447.34;5045821;28;45428;-77
2022/01/14 02:40:55;;;;;;;;;61.50;49.75;;;;;4.79;69.18;103453.34;5062897;28;45357;-77
2022/01/14 02:43:20;;;;;;;;;71.25;50.25;;;;;4.79;69.24;103445.50;5045314;28;45628;-75
2022/01/14 02:45:50;;;;;;;;;68.50;51.50;;;;;4.74;69.31;103439.03;5063069;28;45343;-76
2022/01/14 02:48:21;;;;;;;;;60.75;46.00;;;;;4.78;69.13;103459.41;5063335;28;45354;-77
2022/01/14 02:50:56;;;;;;;;;64.50;50.00;;;;;4.77;68.97;103457.56;5062447;28;45283;-76
2022/01/14 02:56:05;;;;;;;;;65.00;50.00;;;;;4.76;69.09;103457.47;5047148;28;45196;-76
2022/01/14 02:58:32;;;;;;;;;69.25;47.50;;;;;4.75;68.88;103445.19;5063090;28;45371;-77
2022/01/14 03:01:02;;;;;;;;;61.75;44.50;;;;;4.73;69.11;103445.94;5062649;28;45489;-75
2022/01/14 03:03:29;;;;;;;;;65.00;48.00;;;;;4.72;68.96;103438.00;5062882;28;45874;-75
2022/01/14 03:05:55;;;;;;;;;63.50;48.50;;;;;4.68;69.08;103421.13;5028183;28;45283;-77
2022/01/14 03:08:20;;;;;;;;;68.75;49.75;;;;;4.69;69.16;103422.06;5044776;28;45825;-76
2022/01/14 03:10:49;;;;;;;;;69.25;52.75;;;;;4.68;69.53;103418.50;5045079;28;46254;-77
2022/01/14 03:13:15;;;;;;;;;67.50;47.50;;;;;4.64;69.15;103418.19;5062258;28;46739;-76
2022/01/14 03:15:40;;;;;;;;;62.50;46.25;;;;;4.66;69.25;103421.81;5028124;28;45337;-76
2022/01/14 03:18:06;;;;;;;;;63.00;49.50;;;;;4.63;69.07;103417.25;5027640;28;45891;-77
2022/01/14 03:20:50;;;;;;;;;68.00;49.00;;;;;4.68;69.15;103415.00;5062581;28;45543;-76
2022/01/14 03:23:16;;;;;;;;;60.00;45.75;;;;;4.66;69.04;103417.50;5059769;28;45470;-76
2022/01/14 03:25:48;;;;;;;;;63.00;48.25;;;;;4.66;69.30;103417.50;5040791;28;45328;-75
2022/01/14 03:28:15;;;;;;;;;56.25;44.75;;;;;4.66;69.16;103420.13;5033369;28;45466;-76
2022/01/14 03:30:41;;;;;;;;;66.75;48.50;;;;;4.65;69.23;103413.06;5039264;28;45246;-78
2022/01/14 03:33:06;;;;;;;;;66.50;48.00;;;;;4.65;69.04;103413.06;5057324;28;46380;-78
2022/01/14 03:35:31;;;;;;;;;63.00;49.00;;;;;4.65;69.38;103409.53;5059285;28;45343;-76
2022/01/14 03:37:57;;;;;;;;;66.25;51.25;;;;;4.64;69.24;103411.25;5058459;28;52548;-76
2022/01/14 03:40:22;;;;;;;;;71.25;50.75;;;;;4.65;69.03;103413.06;5058737;28;45386;-75
2022/01/14 03:42:48;;;;;;;;;74.25;47.25;;;;;4.64;69.43;103411.25;5057775;28;63765;-75
2022/01/14 03:45:13;;;;;;;;;64.75;48.50;;;;;4.66;69.23;103420.13;5058424;28;57572;-76
2022/01/14 03:47:39;;;;;;;;;64.75;48.75;;;;;4.65;69.11;103423.53;5058797;28;45431;-78
2022/01/14 03:50:04;;;;;;;;;51.00;43.50;;;;;4.62;69.02;103409.28;5058369;28;52441;-78
2022/01/14 03:52:31;;;;;;;;;68.25;47.50;;;;;4.64;69.07;103416.47;5040391;28;46241;-75
2022/01/14 03:54:56;;;;;;;;;64.75;49.00;;;;;4.63;69.27;103406.78;5058519;28;45550;-76
2022/01/14 03:57:22;;;;;;;;;72.00;51.75;;;;;4.63;69.13;103408.50;5058268;28;58997;-76
2022/01/14 03:59:47;;;;;;;;;72.50;50.00;;;;;4.62;69.33;103412.81;5058421;28;48105;-78
2022/01/14 04:02:13;;;;;;;;;65.75;48.25;;;;;4.62;69.22;103399.72;5007285;28;47744;-76
2022/01/14 04:04:38;;;;;;;;;66.75;49.75;;;;;4.57;68.80;103390.63;5039746;28;58460;-76
2022/01/14 04:07:03;;;;;;;;;73.75;50.75;;;;;4.59;69.05;103402.13;5026293;28;56896;-76
2022/01/14 04:09:31;;;;;;;;;72.25;48.00;;;;;4.58;69.24;103413.41;5058468;28;52511;-76
2022/01/14 04:12:00;;;;;;;;;69.75;53.00;;;;;4.57;69.17;103405.41;5058250;28;45859;-77
2022/01/14 04:16:51;;;;;;;;;64.75;52.50;;;;;4.48;69.17;103395.19;5058535;28;45450;-76
2022/01/14 04:19:17;;;;;;;;;64.50;50.75;;;;;4.54;68.84;103402.59;5023634;28;45429;-76
2022/01/14 04:21:42;;;;;;;;;70.50;49.50;;;;;4.55;69.25;103409.63;5057907;28;45679;-76
2022/01/14 04:24:08;;;;;;;;;69.25;50.00;;;;;4.55;68.90;103412.25;5058029;28;57744;-75
2022/01/14 04:26:33;;;;;;;;;67.75;50.25;;;;;4.54;68.82;103403.50;5057528;28;52727;-75
2022/01/14 04:28:58;;;;;;;;;74.25;50.75;;;;;4.53;68.87;103406.91;5030257;28;57422;-78
2022/01/14 04:31:24;;;;;;;;;69.00;50.25;;;;;4.53;68.86;103399.06;5037469;28;62291;-76
2022/01/14 04:33:49;;;;;;;;;65.75;49.25;;;;;4.53;69.08;103399.06;5044769;28;58982;-75
2022/01/14 04:36:14;;;;;;;;;63.50;46.75;;;;;4.52;69.26;103381.50;5057203;28;54573;-77
2022/01/14 04:38:40;;;;;;;;;59.50;50.00;;;;;4.51;68.94;103397.09;5057448;28;52816;-79
2022/01/14 04:41:05;;;;;;;;;71.75;51.25;;;;;4.51;68.85;103386.63;5057570;28;56335;-78
2022/01/14 04:43:31;;;;;;;;;59.75;48.75;;;;;4.45;68.87;103376.63;5023179;28;45342;-76
2022/01/14 04:48:24;;;;;;;;;69.00;51.00;;;;;4.47;68.87;103381.19;5058028;28;46304;-75
2022/01/14 04:50:53;;;;;;;;;63.50;48.25;;;;;4.39;69.03;103371.81;5057572;28;46285;-76
2022/01/14 04:53:18;;;;;;;;;63.50;48.75;;;;;4.45;68.93;103385.38;5058133;28;45430;-76
2022/01/14 04:55:44;;;;;;;;;62.75;49.00;;;;;4.36;68.92;103357.59;5057986;28;45501;-76
2022/01/14 04:58:10;;;;;;;;;62.00;44.50;;;;;4.43;68.99;103373.88;5058234;28;45484;-75
2022/01/14 05:00:37;;;;;;;;;64.25;51.75;;;;;4.42;68.98;103374.69;5056919;28;62065;-77
2022/01/14 05:03:03;;;;;;;;;66.25;48.50;;;;;4.36;69.08;103355.88;5055457;28;45400;-76
2022/01/14 05:05:32;;;;;;;;;77.00;52.00;;;;;4.42;68.88;103371.13;5057685;28;45379;-77
2022/01/14 05:07:58;;;;;;;;;64.25;51.50;;;;;4.41;68.92;103365.00;5040558;28;45190;-78
2022/01/14 05:12:55;;;;;;;;;68.75;49.50;;;;;4.41;68.71;103353.63;5037843;28;45223;-76
2022/01/14 05:15:20;;;;;;;;;70.00;50.25;;;;;4.38;68.92;103348.19;5011845;28;45413;-76
2022/01/14 05:17:47;;;;;;;;;69.75;50.25;;;;;4.42;69.38;103351.16;5057078;28;52001;-76
2022/01/14 05:20:12;;;;;;;;;52.75;39.50;;;;;4.43;69.04;103357.28;5022928;28;45728;-76
2022/01/14 05:22:38;;;;;;;;;66.75;48.00;;;;;4.43;69.00;103352.06;5038914;28;45437;-78
2022/01/14 05:25:04;;;;;;;;;55.00;46.00;;;;;4.43;68.92;103359.91;5037365;28;46763;-75
2022/01/14 05:27:30;;;;;;;;;64.75;46.00;;;;;4.42;69.18;103360.66;5035274;28;45527;-76
2022/01/14 05:29:55;;;;;;;;;55.75;42.00;;;;;4.42;69.08;103369.47;5050553;28;64492;-77
2022/01/14 05:32:22;;;;;;;;;63.75;43.50;;;;;4.41;69.41;103370.22;5046174;28;56206;-75
2022/01/14 05:34:47;;;;;;;;;59.00;45.25;;;;;4.41;69.22;103370.22;5053000;28;46131;-76
2022/01/14 05:37:13;;;;;;;;;60.25;43.25;;;;;4.42;69.14;103368.50;5027677;28;56594;-76
2022/01/14 05:39:38;;;;;;;;;63.75;45.50;;;;;4.43;69.29;103375.59;5049367;28;45488;-77
2022/01/14 05:42:04;;;;;;;;;59.00;42.25;;;;;4.42;69.33;103376.38;5053823;28;45422;-76
2022/01/14 05:44:29;;;;;;;;;54.00;43.50;;;;;4.41;69.03;103372.84;5054202;28;45625;-77
2022/01/14 05:46:56;;;;;;;;;59.50;45.25;;;;;4.40;69.20;103384.09;5054533;28;45468;-75
2022/01/14 05:49:21;;;;;;;;;61.50;45.25;;;;;4.40;69.10;103383.19;5054303;28;46687;-76
2022/01/14 05:51:46;;;;;;;;;61.50;46.00;;;;;4.41;69.41;103387.63;5054363;28;45415;-76
2022/01/14 05:54:12;;;;;;;;;65.25;44.25;;;;;4.40;69.01;103375.34;5053042;28;45481;-75
2022/01/14 05:56:38;;;;;;;;;59.50;43.75;;;;;4.39;69.36;103371.81;5032536;28;45614;-77
2022/01/14 05:59:03;;;;;;;;;51.50;41.00;;;;;4.39;68.85;103374.44;5035404;28;45554;-77
2022/01/14 06:01:32;;;;;;;;;52.25;44.25;;;;;4.39;68.97;103370.91;5052554;28;45442;-77
2022/01/14 06:03:58;;;;;;;;;60.75;40.50;;;;;4.33;69.26;103358.28;5053739;28;45241;-79
2022/01/14 06:06:24;;;;;;;;;63.25;43.00;;;;;4.38;69.38;103375.25;5037123;28;45515;-75
2022/01/14 06:08:49;;;;;;;;;47.00;38.25;;;;;4.39;69.29;103368.31;5032786;28;46252;-75
2022/01/14 06:11:15;;;;;;;;;60.00;44.75;;;;;4.34;69.34;103353.97;5031828;28;46853;-75
2022/01/14 06:13:40;;;;;;;;;48.25;40.00;;;;;4.38;68.92;103356.94;5048648;28;45438;-75
2022/01/14 06:16:06;;;;;;;;;53.00;41.25;;;;;4.24;69.39;103362.78;5048993;28;54533;-83
2022/01/14 06:18:31;;;;;;;;;48.25;41.00;;;;;3.94;70.20;103358.69;5044150;28;49402;-79
2022/01/14 06:20:56;;;;;;;;;45.25;35.00;;;;;3.79;70.92;103370.59;5032929;28;57674;-77
2022/01/14 06:23:23;;;;;;;;;40.00;29.00;;;;;3.59;71.80;103376.81;5025544;28;45711;-78
2022/01/14 06:25:49;;;;;;;;;40.75;32.00;;;;;3.40;72.94;103377.94;5028383;28;54832;-78
2022/01/14 06:28:14;;;;;;;;;50.50;38.75;;;;;3.27;73.33;103372.53;5030898;28;45427;-78
2022/01/14 06:30:39;;;;;;;;;41.50;34.75;;;;;3.15;73.70;103382.88;5030710;28;51602;-78
2022/01/14 06:33:05;;;;;;;;;45.75;33.25;;;;;3.04;74.43;103374.97;5016458;28;52009;-79
2022/01/14 06:35:31;;;;;;;;;38.00;34.25;;;;;2.95;74.54;103382.03;5034242;28;45456;-78
2022/01/14 06:37:57;;;;;;;;;51.25;40.50;;;;;3.02;74.05;103398.31;5019738;28;56238;-74
2022/01/14 06:40:23;;;;;;;;;44.25;38.00;;;;;3.09;73.87;103385.00;5029085;28;45458;-74
2022/01/14 06:42:49;;;;;;;;;43.00;36.50;;;;;3.22;73.42;103379.06;5033435;28;45566;-73
2022/01/14 06:45:15;;;;;;;;;45.00;41.50;;;;;3.33;73.56;103369.50;5034571;28;45463;-73
2022/01/14 06:47:40;;;;;;;;;46.00;38.25;;;;;3.43;73.58;103369.47;5032587;28;45519;-73
2022/01/14 06:50:06;;;;;;;;;55.00;41.50;;;;;3.54;72.98;103367.72;5022687;28;61865;-74
2022/01/14 06:52:31;;;;;;;;;49.50;38.75;;;;;3.63;73.07;103371.06;5035367;28;45367;-76
2022/01/14 06:54:57;;;;;;;;;42.00;33.00;;;;;3.73;73.06;103375.28;5033160;28;45477;-75
2022/01/14 06:57:24;;;;;;;;;50.00;37.00;;;;;3.81;72.74;103363.75;5028681;28;45525;-74
2022/01/14 06:59:49;;;;;;;;;48.25;38.75;;;;;3.88;72.79;103368.66;5023496;28;45423;-73
2022/01/14 07:02:15;;;;;;;;;44.50;38.75;;;;;3.93;72.28;103365.63;5031534;28;45649;-73
2022/01/14 07:04:40;;;;;;;;;45.00;36.25;;;;;4.01;72.68;103371.47;5038196;28;51859;-74
2022/01/14 07:07:05;;;;;;;;;43.50;36.25;;;;;4.05;72.49;103367.38;5033234;28;64272;-73
2022/01/14 07:09:31;;;;;;;;;50.25;40.00;;;;;4.11;72.17;103374.03;5029468;28;52528;-74
2022/01/14 07:11:59;;;;;;;;;61.00;43.00;;;;;4.07;72.42;103358.88;5032333;28;45378;-74
2022/01/14 07:14:25;;;;;;;;;45.50;40.50;;;;;4.19;72.34;103369.38;5031015;28;46575;-78
2022/01/14 07:16:50;;;;;;;;;51.00;40.25;;;;;4.23;72.14;103357.47;5035534;28;47101;-76
2022/01/14 07:19:18;;;;;;;;;39.00;31.75;;;;;4.26;71.83;103360.28;5028737;28;45499;-73
2022/01/14 07:21:44;;;;;;;;;50.75;39.50;;;;;4.29;71.67;103355.31;5034237;28;45538;-73
2022/01/14 07:24:10;;;;;;;;;50.50;41.25;;;;;4.25;71.64;103342.78;5048406;28;45609;-73
2022/01/14 07:26:35;;;;;;;;;58.50;41.75;;;;;4.32;71.83;103356.47;5052313;28;45757;-74
2022/01/14 07:29:00;;;;;;;;;49.75;42.50;;;;;4.36;71.87;103352.34;5053467;28;59500;-73
2022/01/14 07:31:26;;;;;;;;;57.25;43.00;;;;;4.38;71.71;103351.69;5047085;28;55426;-73
2022/01/14 07:33:51;;;;;;;;;52.25;42.00;;;;;4.40;71.73;103357.03;5054643;28;51352;-75
2022/01/14 07:36:17;;;;;;;;;51.75;39.50;;;;;4.38;71.57;103356.03;5052059;28;60981;-73
2022/01/14 07:38:42;;;;;;;;;49.00;38.50;;;;;4.42;71.81;103365.91;5053376;28;59918;-73
2022/01/14 07:41:07;;;;;;;;;42.75;32.50;;;;;4.42;71.11;103360.66;5055516;28;45466;-75
2022/01/14 07:43:35;;;;;;;;;53.50;42.50;;;;;4.43;71.60;103354.66;5032647;28;45399;-74
2022/01/14 07:46:00;;;;;;;;;47.00;39.00;;;;;4.45;71.29;103360.91;5036681;28;47485;-74
2022/01/14 07:48:25;;;;;;;;;51.50;40.00;;;;;4.46;71.50;103358.41;5031367;28;60651;-74
2022/01/14 07:50:51;;;;;;;;;49.50;40.50;;;;;4.49;71.32;103369.91;5051661;28;48007;-74
2022/01/14 07:53:16;;;;;;;;;54.00;44.25;;;;;4.50;71.09;103369.13;5047797;28;53103;-74
2022/01/14 07:55:41;;;;;;;;;48.75;42.00;;;;;4.50;71.45;103374.34;5055243;28;65309;-74
2022/01/14 07:58:07;;;;;;;;;45.00;42.50;;;;;4.49;71.17;103362.06;5057710;28;45513;-75
2022/01/14 08:00:35;;;;;;;;;47.25;39.00;;;;;4.54;70.95;103379.03;5029249;28;52371;-74
2022/01/14 08:03:01;;;;;;;;;60.75;46.00;;;;;4.56;71.13;103369.59;5053889;28;45508;-74
2022/01/14 08:05:26;;;;;;;;;58.00;42.00;;;;;4.57;71.23;103364.47;5053568;28;46385;-74
2022/01/14 08:07:53;;;;;;;;;50.25;40.00;;;;;4.58;71.03;103365.38;5050857;28;45454;-74
2022/01/14 08:10:18;;;;;;;;;55.25;44.50;;;;;4.56;71.43;103360.03;5054483;28;45502;-75
2022/01/14 08:12:46;;;;;;;;;61.25;45.25;;;;;4.63;70.97;103369.25;5055449;28;45621;-74
2022/01/14 08:15:11;;;;;;;;;55.50;44.75;;;;;4.64;71.24;103377.22;5048460;28;45580;-73
2022/01/14 08:17:37;;;;;;;;;63.00;45.75;;;;;4.62;71.19;103365.72;5048862;28;56139;-73
2022/01/14 08:20:04;;;;;;;;;60.25;45.25;;;;;4.68;71.26;103368.78;5051634;28;45294;-73
2022/01/14 08:22:30;;;;;;;;;58.75;43.00;;;;;4.71;71.18;103381.22;5054148;28;45668;-75
2022/01/14 08:24:56;;;;;;;;;54.75;41.50;;;;;4.75;71.10;103385.00;5055820;28;46547;-73
2022/01/14 08:27:22;;;;;;;;;52.00;41.75;;;;;4.74;70.97;103376.22;5055300;28;45600;-73
2022/01/14 08:29:47;;;;;;;;;65.50;47.25;;;;;4.77;70.90;103381.66;5053575;28;55271;-73
2022/01/14 08:32:13;;;;;;;;;51.00;38.00;;;;;4.75;71.02;103380.66;5052500;28;45371;-73
2022/01/14 08:34:39;;;;;;;;;55.00;44.00;;;;;4.81;71.02;103385.44;5038175;28;46931;-73
2022/01/14 08:37:04;;;;;;;;;57.00;46.00;;;;;4.82;71.04;103380.31;5033803;28;45508;-73
2022/01/14 08:39:30;;;;;;;;;52.50;44.75;;;;;4.84;71.22;103386.56;5032316;28;45510;-73
2022/01/14 08:41:55;;;;;;;;;57.75;47.00;;;;;4.82;71.04;103377.69;5048593;28;53306;-73
2022/01/14 08:44:21;;;;;;;;;53.50;43.50;;;;;4.86;71.12;103376.22;5051115;28;47828;-73
2022/01/14 08:46:46;;;;;;;;;62.75;45.00;;;;;4.93;71.35;103381.13;5053683;28;59417;-75
2022/01/14 08:49:11;;;;;;;;;67.75;48.50;;;;;4.95;71.01;103383.06;5050799;28;45937;-73
2022/01/14 08:51:37;;;;;;;;;61.00;42.00;;;;;4.98;70.94;103390.22;5051875;28;46070;-78
2022/01/14 08:54:03;;;;;;;;;57.00;42.50;;;;;5.00;71.28;103400.00;5049505;28;45674;-75
2022/01/14 08:56:30;;;;;;;;;60.25;45.25;;;;;5.05;71.44;103386.34;5046373;28;45896;-74
2022/01/14 08:58:55;;;;;;;;;55.75;45.75;;;;;5.05;71.17;103389.88;5053629;28;45485;-75
2022/01/14 09:01:21;;;;;;;;;52.75;44.75;;;;;5.09;70.96;103389.31;5048025;28;52347;-75
2022/01/14 09:03:46;;;;;;;;;64.50;45.25;;;;;5.12;71.35;103376.47;5052437;28;61445;-74
2022/01/14 09:06:11;;;;;;;;;63.00;45.50;;;;;5.16;71.35;103377.56;5034931;28;56365;-74
2022/01/14 09:08:37;;;;;;;;;62.25;48.25;;;;;5.18;71.06;103374.28;5050237;28;46535;-74
2022/01/14 09:11:02;;;;;;;;;65.25;53.00;;;;;5.22;71.09;103367.59;5050024;28;45565;-75
2022/01/14 09:13:28;;;;;;;;;66.00;50.00;;;;;5.23;71.21;103374.63;5050324;28;46159;-73
2022/01/14 09:15:53;;;;;;;;;67.75;49.00;;;;;5.21;71.31;103357.88;5053943;28;45513;-75
2022/01/14 09:18:18;;;;;;;;;59.00;47.75;;;;;5.29;71.07;103375.09;5054851;28;55498;-76
2022/01/14 09:20:44;;;;;;;;;67.00;48.00;;;;;5.32;71.32;103371.75;5057550;27;45274;-74
2022/01/14 09:23:15;;;;;;;;;69.50;49.50;;;;;5.33;71.18;103366.66;5213838;22;53742;-75
2022/01/14 09:25:41;;;;;;;;;66.75;51.50;;;;;5.33;71.15;103348.31;5090871;27;45493;-76
2022/01/14 09:28:06;;;;;;;;;68.00;50.50;;;;;5.40;71.03;103366.28;5090807;27;46009;-74
2022/01/14 09:30:31;;;;;;;;;65.00;49.00;;;;;5.44;71.21;103370.06;5072667;27;46347;-74
2022/01/14 09:32:57;;;;;;;;;57.25;49.00;;;;;5.47;71.29;103362.41;5090166;27;60161;-74
2022/01/14 09:35:23;;;;;;;;;65.00;52.25;;;;;5.46;71.15;103356.25;5071335;27;57684;-74
2022/01/14 09:37:50;;;;;;;;;74.75;55.50;;;;;5.53;71.24;103357.59;5092154;27;45445;-75
2022/01/14 09:40:16;;;;;;;;;70.50;53.00;;;;;5.58;71.46;103368.41;5095980;27;45654;-73
2022/01/14 09:42:45;;;;;;;;;75.00;51.25;;;;;5.62;71.08;103363.50;5077889;27;45889;-76
2022/01/14 09:45:11;;;;;;;;;67.50;53.50;;;;;5.62;71.41;103365.22;5069716;27;45444;-74
2022/01/14 09:47:36;;;;;;;;;76.00;56.00;;;;;5.67;71.22;103366.47;5092046;27;56420;-75
2022/01/14 09:50:02;;;;;;;;;69.75;52.50;;;;;5.70;71.27;103364.03;5072771;27;45248;-73
2022/01/14 09:52:28;;;;;;;;;75.25;56.00;;;;;5.74;71.48;103364.38;5070194;27;45761;-74
2022/01/14 09:54:53;;;;;;;;;77.75;57.25;;;;;5.77;71.27;103364.59;5094806;27;45773;-76
2022/01/14 09:57:19;;;;;;;;;72.75;57.00;;;;;5.81;71.19;103370.97;5093792;27;45481;-74
2022/01/14 09:59:44;;;;;;;;;77.00;57.00;;;;;5.84;71.68;103371.19;5076325;27;45381;-77
2022/01/14 10:02:27;;;;;;;;;72.75;54.75;;;;;5.90;71.26;103379.47;5090824;27;45184;-73
2022/01/14 10:04:53;;;;;;;;;74.50;54.50;;;;;5.94;71.14;103384.19;5092480;27;45463;-73
2022/01/14 10:07:18;;;;;;;;;68.00;51.75;;;;;5.98;71.66;103383.59;5088506;27;53906;-73
2022/01/14 10:09:47;;;;;;;;;71.50;53.75;;;;;6.01;71.15;103383.78;5094782;27;56929;-74
2022/01/14 10:12:17;;;;;;;;;63.75;49.75;;;;;6.04;70.89;103384.03;5093571;27;46484;-77
2022/01/14 10:15:00;;;;;;;;;65.00;51.25;;;;;6.06;71.09;103378.88;5071385;27;45329;-77
2022/01/14 10:17:26;;;;;;;;;75.25;54.75;;;;;6.14;71.07;103380.34;5094915;27;45534;-75
2022/01/14 10:19:51;;;;;;;;;71.25;56.25;;;;;6.14;70.95;103366.31;5077079;27;45455;-74
2022/01/14 10:22:31;;;;;;;;;65.75;48.50;;;;;6.20;70.94;103367.66;5072531;27;46310;-72
2022/01/14 10:25:07;;;;;;;;;67.25;44.75;;;;;6.26;70.87;103369.78;5088976;27;45595;-73
2022/01/14 10:27:33;;;;;;;;;73.00;50.50;;;;;6.30;70.88;103379.69;5091182;27;45319;-74
2022/01/14 10:30:15;;;;;;;;;56.25;43.75;;;;;6.35;70.74;103380.03;5091575;27;45529;-73
2022/01/14 10:32:41;;;;;;;;;59.00;43.00;;;;;6.39;70.81;103382.03;5092878;27;46377;-76
2022/01/14 10:35:08;;;;;;;;;62.75;50.00;;;;;6.43;70.94;103379.72;5096200;27;45469;-74
2022/01/14 10:37:34;;;;;;;;;66.75;52.75;;;;;6.46;70.80;103372.06;5095040;27;45402;-74
2022/01/14 10:40:00;;;;;;;;;67.00;52.00;;;;;6.51;70.79;103369.78;5097406;27;45395;-74
2022/01/14 10:42:30;;;;;;;;;61.25;46.75;;;;;6.55;70.55;103377.97;5076618;27;46378;-75
2022/01/14 10:44:56;;;;;;;;;66.75;48.50;;;;;6.60;70.51;103370.38;5076049;27;45548;-74
2022/01/14 10:47:23;;;;;;;;;57.75;44.50;;;;;6.64;70.52;103367.16;5078734;27;45441;-74
2022/01/14 10:49:50;;;;;;;;;52.50;44.75;;;;;6.67;70.46;103351.63;5078214;27;45451;-74
2022/01/14 10:52:23;;;;;;;;;64.75;50.50;;;;;6.70;70.48;103341.31;5094876;27;45477;-74
2022/01/14 10:54:50;;;;;;;;;66.50;49.00;;;;;6.74;70.03;103343.34;5096792;27;45469;-76
2022/01/14 10:57:18;;;;;;;;;64.75;47.00;;;;;6.78;70.02;103333.97;5098083;27;45310;-75
2022/01/14 10:59:44;;;;;;;;;65.75;49.75;;;;;6.87;70.21;103334.59;5099635;27;45450;-76
2022/01/14 11:02:30;;;;;;;;;65.50;47.25;;;;;6.94;70.02;103342.03;5097705;27;46504;-75
2022/01/14 11:05:19;;;;;;;;;67.00;49.50;;;;;6.99;69.61;103338.00;5093572;27;45414;-74
2022/01/14 11:07:45;;;;;;;;;61.75;47.75;;;;;7.04;69.54;103336.59;5096480;27;45493;-74
2022/01/14 11:10:23;;;;;;;;;61.75;48.75;;;;;7.11;69.45;103335.25;5097362;27;45513;-74
2022/01/14 11:12:49;;;;;;;;;68.25;51.75;;;;;7.16;69.42;103328.59;5090456;27;45453;-73
2022/01/14 11:15:14;;;;;;;;;67.50;49.50;;;;;7.17;69.54;103319.91;5099213;27;45491;-74
2022/01/14 11:17:41;;;;;;;;;67.25;51.00;;;;;7.26;69.49;103315.25;5099143;27;45394;-74
2022/01/14 11:20:08;;;;;;;;;69.00;48.50;;;;;7.28;69.56;103304.81;5099768;27;45271;-74
2022/01/14 11:25:17;;;;;;;;;66.25;51.25;;;;;7.43;69.18;103311.06;5095637;27;45451;-74
2022/01/14 11:27:52;;;;;;;;;70.00;52.00;;;;;7.49;68.89;103318.41;5093961;27;53570;-75
2022/01/14 11:30:17;;;;;;;;;68.50;50.25;;;;;7.53;69.02;103297.69;5061597;27;45305;-74
2022/01/14 11:33:09;;;;;;;;;67.25;52.00;;;;;7.61;69.02;103306.03;5092978;27;45586;-76
2022/01/14 11:35:37;;;;;;;;;68.25;51.00;;;;;7.64;68.95;103303.63;5086273;27;45546;-74
2022/01/14 11:44:55;;;;;;;;;62.75;48.75;;;;;7.76;68.61;103283.34;5086601;27;45500;-73
2022/01/14 11:47:24;;;;;;;;;67.75;51.25;;;;;7.85;68.81;103291.78;5088770;27;45703;-73
2022/01/14 11:49:49;;;;;;;;;68.25;51.00;;;;;7.89;68.58;103290.28;5087760;27;45411;-73